Terminal Aerodrome Forecast
Issued by NWS Cleveland, OH

Home | Current Version | Previous Version | Graphics & Text | Print | Product List | Glossary On
Versions: 1 2 3 4 5 6 7 8 9 10 11 12 13 14
000
FTUS41 KCLE 151700
TAFCAK
TAF
KCAK 151731Z 1518/1618 34012G20KT P6SM OVC020
      TEMPO 1518/1521 3SM -SHSN
     FM152200 31010G18KT P6SM OVC025
     FM160100 33009KT P6SM BKN030
     FM161100 18003KT P6SM SCT050=

USA.gov is the U.S. government's official web portal to all federal, state and local government web resources and services.